Time;durP1;ratioP1;P1;durP2;ratioP2;P2;SDS_P1;SDS_P2;PMS_P1;PMS_P2;Temp;Humidity;BMP_temperature;BMP_pressure;BME280_temperature;BME280_humidity;BME280_pressure;Samples;Min_cycle;Max_cycle;Signal;HPM_P1;HPM_P2
2021/05/03 00:00:22;;;;;;;8.10;5.00;;;;;;;;;;5092022;28;20036;-75
2021/05/03 00:02:49;;;;;;;8.73;5.30;;;;;;;;;;5092476;28;20073;-74
2021/05/03 00:05:21;;;;;;;8.18;5.10;;;;;;;;;;5102052;28;20091;-74
2021/05/03 00:07:47;;;;;;;12.35;5.38;;;;;;;;;;5110076;28;20035;-73
2021/05/03 00:10:12;;;;;;;7.82;5.60;;;;;;;;;;5114690;28;20336;-74
2021/05/03 00:12:37;;;;;;;10.93;5.15;;;;;;;;;;5098861;28;20016;-74
2021/05/03 00:15:03;;;;;;;9.95;5.53;;;;;;;;;;5111524;28;20027;-73
2021/05/03 00:17:28;;;;;;;8.93;5.53;;;;;;;;;;5115959;28;20015;-74
2021/05/03 00:19:53;;;;;;;8.18;5.40;;;;;;;;;;5115481;28;20045;-74
2021/05/03 00:22:18;;;;;;;10.45;5.88;;;;;;;;;;5115912;28;20063;-74
2021/05/03 00:24:46;;;;;;;12.48;6.00;;;;;;;;;;5115488;28;20035;-74
2021/05/03 00:27:11;;;;;;;9.07;5.85;;;;;;;;;;5115176;28;20029;-74
2021/05/03 00:29:36;;;;;;;11.07;5.55;;;;;;;;;;5115076;28;20155;-73
2021/05/03 00:32:02;;;;;;;8.27;5.22;;;;;;;;;;5115187;28;20035;-73
2021/05/03 00:34:27;;;;;;;10.55;5.68;;;;;;;;;;5116034;28;20026;-75
2021/05/03 00:36:52;;;;;;;8.40;5.72;;;;;;;;;;5116164;28;20436;-74
2021/05/03 00:39:17;;;;;;;8.95;6.20;;;;;;;;;;5115382;28;20076;-74
2021/05/03 00:41:42;;;;;;;9.90;6.70;;;;;;;;;;5115437;28;20047;-74
2021/05/03 00:44:08;;;;;;;8.45;6.78;;;;;;;;;;5110312;28;20024;-75
2021/05/03 00:46:38;;;;;;;9.10;6.80;;;;;;;;;;5095014;28;20028;-73
2021/05/03 00:49:03;;;;;;;15.07;6.68;;;;;;;;;;5099687;28;20098;-74
2021/05/03 00:51:29;;;;;;;13.82;7.82;;;;;;;;;;5099711;28;20150;-74
2021/05/03 00:53:55;;;;;;;12.57;7.60;;;;;;;;;;5106980;28;20065;-74
2021/05/03 00:56:22;;;;;;;9.18;7.05;;;;;;;;;;5113322;28;20128;-74
2021/05/03 00:58:47;;;;;;;9.95;6.68;;;;;;;;;;5114620;28;20024;-74
2021/05/03 01:01:13;;;;;;;10.60;6.80;;;;;;;;;;5114101;28;20024;-75
2021/05/03 01:03:38;;;;;;;9.70;7.13;;;;;;;;;;5112097;28;20027;-74
2021/05/03 01:06:06;;;;;;;9.88;6.53;;;;;;;;;;5093460;28;20016;-73
2021/05/03 01:08:31;;;;;;;9.32;7.03;;;;;;;;;;5108881;28;20025;-73
2021/05/03 01:10:59;;;;;;;9.10;6.80;;;;;;;;;;5114948;28;20106;-73
2021/05/03 01:13:24;;;;;;;9.57;6.07;;;;;;;;;;5105375;28;20727;-74
2021/05/03 01:15:49;;;;;;;9.27;6.05;;;;;;;;;;5102584;28;20143;-73
2021/05/03 01:18:23;;;;;;;9.57;6.68;;;;;;;;;;5112934;28;20015;-75
2021/05/03 01:20:48;;;;;;;9.98;6.85;;;;;;;;;;5114566;28;20068;-73
2021/05/03 01:23:13;;;;;;;8.27;6.53;;;;;;;;;;5114235;28;20015;-74
2021/05/03 01:25:42;;;;;;;9.88;6.50;;;;;;;;;;5114968;28;20023;-74
2021/05/03 01:28:07;;;;;;;9.43;6.20;;;;;;;;;;5115082;28;20016;-73
2021/05/03 01:30:35;;;;;;;10.93;7.03;;;;;;;;;;5110670;28;20024;-73
2021/05/03 01:33:00;;;;;;;9.35;6.13;;;;;;;;;;5107071;28;20019;-73
2021/05/03 01:35:25;;;;;;;11.13;6.53;;;;;;;;;;5105883;28;20035;-74
2021/05/03 01:37:52;;;;;;;9.55;6.30;;;;;;;;;;5093820;28;20568;-74
2021/05/03 01:40:19;;;;;;;7.55;6.63;;;;;;;;;;5093278;28;20099;-73
2021/05/03 01:42:45;;;;;;;10.95;6.63;;;;;;;;;;5093309;28;20036;-73
2021/05/03 01:45:10;;;;;;;8.60;6.97;;;;;;;;;;5094361;28;20024;-73
2021/05/03 01:47:36;;;;;;;8.35;7.15;;;;;;;;;;5094294;28;20020;-73
2021/05/03 01:50:03;;;;;;;8.07;6.55;;;;;;;;;;5101573;28;20471;-74
2021/05/03 01:52:29;;;;;;;8.45;6.70;;;;;;;;;;5114393;28;20024;-74
2021/05/03 01:54:54;;;;;;;7.25;6.55;;;;;;;;;;5114538;28;20050;-75
2021/05/03 01:57:22;;;;;;;7.65;6.65;;;;;;;;;;5114626;28;20015;-73
2021/05/03 01:59:51;;;;;;;10.15;6.78;;;;;;;;;;5113534;28;20023;-73
2021/05/03 02:02:16;;;;;;;9.13;6.43;;;;;;;;;;5114204;28;20107;-73
2021/05/03 02:04:42;;;;;;;10.50;7.05;;;;;;;;;;5113439;27;20098;-73
2021/05/03 02:07:07;;;;;;;11.15;7.28;;;;;;;;;;5113671;28;20039;-73
2021/05/03 02:09:32;;;;;;;6.50;5.82;;;;;;;;;;5111770;28;20045;-73
2021/05/03 02:12:00;;;;;;;8.98;6.88;;;;;;;;;;5099274;28;20028;-74
2021/05/03 02:14:25;;;;;;;10.68;6.80;;;;;;;;;;5093564;28;20032;-73
2021/05/03 02:16:50;;;;;;;9.43;7.28;;;;;;;;;;5093609;28;20321;-74
2021/05/03 02:19:15;;;;;;;7.82;6.82;;;;;;;;;;5093885;28;20016;-73
2021/05/03 02:21:41;;;;;;;9.15;6.70;;;;;;;;;;5104437;28;20023;-73
2021/05/03 02:24:06;;;;;;;9.73;7.47;;;;;;;;;;5113885;28;20031;-73
2021/05/03 02:26:31;;;;;;;8.02;6.82;;;;;;;;;;5113968;28;20030;-73
2021/05/03 02:28:57;;;;;;;8.02;7.15;;;;;;;;;;5113573;28;20077;-73
2021/05/03 02:31:22;;;;;;;8.25;7.28;;;;;;;;;;5113226;28;20050;-76
2021/05/03 02:33:52;;;;;;;9.70;7.22;;;;;;;;;;5113966;28;20200;-74
2021/05/03 02:36:20;;;;;;;9.60;6.93;;;;;;;;;;5112892;28;20062;-74
2021/05/03 02:38:47;;;;;;;8.63;7.28;;;;;;;;;;5110667;28;20020;-73
2021/05/03 02:41:12;;;;;;;9.35;7.30;;;;;;;;;;5098185;28;20043;-73
2021/05/03 02:43:41;;;;;;;9.15;7.38;;;;;;;;;;5112732;28;20028;-73
2021/05/03 02:46:06;;;;;;;8.32;7.38;;;;;;;;;;5113724;28;20324;-73
2021/05/03 02:48:31;;;;;;;8.85;7.50;;;;;;;;;;5112593;28;20124;-73
2021/05/03 02:50:56;;;;;;;8.75;7.95;;;;;;;;;;5113513;28;20027;-73
2021/05/03 02:53:22;;;;;;;9.38;7.75;;;;;;;;;;5113303;28;20023;-73
2021/05/03 02:55:47;;;;;;;7.97;7.18;;;;;;;;;;5113726;28;20360;-73
2021/05/03 02:58:12;;;;;;;8.45;7.15;;;;;;;;;;5093161;28;20020;-73
2021/05/03 03:00:37;;;;;;;9.00;8.10;;;;;;;;;;5092729;28;20082;-73
2021/05/03 03:03:03;;;;;;;8.68;7.78;;;;;;;;;;5093207;28;20039;-73
2021/05/03 03:05:29;;;;;;;11.63;7.70;;;;;;;;;;5091415;28;20016;-73
2021/05/03 03:08:04;;;;;;;8.82;7.82;;;;;;;;;;5100750;28;20117;-73
2021/05/03 03:10:29;;;;;;;8.68;7.78;;;;;;;;;;5113107;28;20026;-73
2021/05/03 03:12:55;;;;;;;9.32;7.72;;;;;;;;;;5095085;28;20442;-74
2021/05/03 03:15:22;;;;;;;9.15;7.82;;;;;;;;;;5092017;28;20020;-73
2021/05/03 03:17:48;;;;;;;9.00;7.80;;;;;;;;;;5111971;28;20030;-74
2021/05/03 03:20:14;;;;;;;8.85;7.75;;;;;;;;;;5101906;28;20024;-74
2021/05/03 03:22:39;;;;;;;9.55;8.48;;;;;;;;;;5092881;28;20023;-74
2021/05/03 03:25:07;;;;;;;10.45;9.25;;;;;;;;;;5098092;28;20027;-74
2021/05/03 03:27:36;;;;;;;10.75;9.00;;;;;;;;;;5112188;28;20031;-74
2021/05/03 03:30:01;;;;;;;12.90;8.70;;;;;;;;;;5113110;28;20019;-74
2021/05/03 03:32:26;;;;;;;9.15;8.07;;;;;;;;;;5112485;28;20038;-74
2021/05/03 03:34:51;;;;;;;10.88;8.15;;;;;;;;;;5113412;28;20026;-74
2021/05/03 03:37:17;;;;;;;9.50;8.50;;;;;;;;;;5112468;28;20459;-73
2021/05/03 03:39:42;;;;;;;11.35;9.40;;;;;;;;;;5113328;28;20085;-74
2021/05/03 03:42:07;;;;;;;8.85;7.95;;;;;;;;;;5109360;28;20403;-73
2021/05/03 03:44:32;;;;;;;10.40;8.75;;;;;;;;;;5105541;28;20043;-73
2021/05/03 03:46:58;;;;;;;9.77;8.88;;;;;;;;;;5098577;28;20027;-73
2021/05/03 03:49:23;;;;;;;10.38;8.68;;;;;;;;;;5112508;28;20041;-74
2021/05/03 03:51:48;;;;;;;10.13;9.10;;;;;;;;;;5116925;28;20083;-74
2021/05/03 03:54:17;;;;;;;12.80;8.85;;;;;;;;;;5117046;28;20024;-74
2021/05/03 03:56:45;;;;;;;14.60;9.32;;;;;;;;;;5116614;27;20080;-74
2021/05/03 03:59:11;;;;;;;8.90;8.00;;;;;;;;;;5115939;28;20085;-74
2021/05/03 04:01:39;;;;;;;10.20;9.18;;;;;;;;;;5100684;28;20012;-73
2021/05/03 04:04:10;;;;;;;12.45;8.95;;;;;;;;;;5099981;28;20387;-74
2021/05/03 04:06:49;;;;;;;10.23;8.85;;;;;;;;;;5116500;28;20007;-74
2021/05/03 04:09:26;;;;;;;10.75;9.63;;;;;;;;;;5096680;28;20401;-73
2021/05/03 04:25:43;;;;;;;14.55;10.93;;;;;;;;;;5112820;28;20028;-74
2021/05/03 04:28:09;;;;;;;12.20;10.02;;;;;;;;;;5116480;28;20024;-74
2021/05/03 04:30:34;;;;;;;12.10;9.45;;;;;;;;;;5115264;27;20115;-74
2021/05/03 04:33:00;;;;;;;13.75;9.80;;;;;;;;;;5115194;27;20023;-72
2021/05/03 04:35:25;;;;;;;10.20;9.13;;;;;;;;;;5115974;28;20011;-74
2021/05/03 04:37:53;;;;;;;12.15;9.77;;;;;;;;;;5096172;28;20389;-74
2021/05/03 04:40:19;;;;;;;13.18;9.15;;;;;;;;;;5099780;28;20363;-73
2021/05/03 04:42:46;;;;;;;12.13;9.40;;;;;;;;;;5102171;28;20043;-74
2021/05/03 04:45:12;;;;;;;10.23;8.18;;;;;;;;;;5097005;28;20032;-74
2021/05/03 04:47:39;;;;;;;12.57;9.13;;;;;;;;;;5095308;28;20093;-74
2021/05/03 04:50:08;;;;;;;10.18;8.45;;;;;;;;;;5096548;28;20064;-74
2021/05/03 04:52:34;;;;;;;12.15;9.38;;;;;;;;;;5098520;28;20016;-74
2021/05/03 04:55:00;;;;;;;11.10;8.85;;;;;;;;;;5098336;28;20021;-74
2021/05/03 04:57:26;;;;;;;11.10;9.35;;;;;;;;;;5101698;28;20026;-74
2021/05/03 04:59:51;;;;;;;12.23;9.10;;;;;;;;;;5108218;28;20016;-74
2021/05/03 05:02:16;;;;;;;10.85;9.18;;;;;;;;;;5098250;28;20065;-74
2021/05/03 05:04:41;;;;;;;13.77;8.93;;;;;;;;;;5099986;28;20031;-74
2021/05/03 05:07:06;;;;;;;12.75;9.48;;;;;;;;;;5105542;28;20047;-74
2021/05/03 05:09:32;;;;;;;12.80;8.95;;;;;;;;;;5105633;28;20047;-74
2021/05/03 05:11:57;;;;;;;10.15;8.55;;;;;;;;;;5097572;28;20028;-74
2021/05/03 05:14:22;;;;;;;10.90;8.20;;;;;;;;;;5099571;28;20016;-74
2021/05/03 05:16:50;;;;;;;11.57;8.23;;;;;;;;;;5101299;28;20031;-74
2021/05/03 05:19:16;;;;;;;10.73;8.23;;;;;;;;;;5094272;28;20038;-75
2021/05/03 05:21:41;;;;;;;13.55;8.65;;;;;;;;;;5097159;28;20027;-75
2021/05/03 05:24:07;;;;;;;12.40;8.45;;;;;;;;;;5097293;28;20116;-73
2021/05/03 05:26:32;;;;;;;9.80;7.63;;;;;;;;;;5110740;28;20066;-74
2021/05/03 05:28:57;;;;;;;9.32;8.43;;;;;;;;;;5094216;28;20496;-74
2021/05/03 05:31:23;;;;;;;11.98;8.15;;;;;;;;;;5094594;28;20073;-74
2021/05/03 05:33:48;;;;;;;10.07;7.53;;;;;;;;;;5111694;28;20050;-72
2021/05/03 05:36:13;;;;;;;10.40;7.35;;;;;;;;;;5114559;28;20077;-72
2021/05/03 05:38:38;;;;;;;13.23;9.07;;;;;;;;;;5113646;28;20035;-72
2021/05/03 05:41:04;;;;;;;9.13;6.78;;;;;;;;;;5114599;28;20055;-73
2021/05/03 05:43:29;;;;;;;9.35;6.90;;;;;;;;;;5113813;28;20153;-73
2021/05/03 05:45:55;;;;;;;7.80;6.80;;;;;;;;;;5111961;28;20047;-73
2021/05/03 05:48:20;;;;;;;7.90;6.53;;;;;;;;;;5110430;28;20058;-74
2021/05/03 05:50:50;;;;;;;9.80;6.63;;;;;;;;;;5113850;28;20024;-74
2021/05/03 05:53:18;;;;;;;9.40;6.78;;;;;;;;;;5116191;28;20016;-75
2021/05/03 05:55:44;;;;;;;10.60;6.65;;;;;;;;;;5113950;28;20031;-72
2021/05/03 05:58:09;;;;;;;10.15;6.78;;;;;;;;;;5111039;28;20024;-74
2021/05/03 06:00:36;;;;;;;8.07;6.60;;;;;;;;;;5100440;28;20082;-74
2021/05/03 06:03:02;;;;;;;9.82;6.55;;;;;;;;;;5100408;28;20024;-72
2021/05/03 06:05:29;;;;;;;8.88;7.18;;;;;;;;;;5095226;28;20048;-73
2021/05/03 06:07:55;;;;;;;9.70;6.60;;;;;;;;;;5096761;28;20035;-74
2021/05/03 06:10:20;;;;;;;7.88;7.00;;;;;;;;;;5102626;28;20444;-76
2021/05/03 06:12:45;;;;;;;8.05;6.47;;;;;;;;;;5104310;28;20031;-74
2021/05/03 06:15:10;;;;;;;10.93;7.45;;;;;;;;;;5097357;28;20333;-73
2021/05/03 06:17:38;;;;;;;8.45;6.88;;;;;;;;;;5101416;28;20020;-75
2021/05/03 06:20:06;;;;;;;7.95;6.90;;;;;;;;;;5113899;28;20050;-73
2021/05/03 06:22:32;;;;;;;8.00;6.75;;;;;;;;;;5094313;28;20316;-73
2021/05/03 06:24:59;;;;;;;9.02;7.75;;;;;;;;;;5105561;28;20085;-74
2021/05/03 06:27:25;;;;;;;10.80;7.47;;;;;;;;;;5103054;28;20032;-74
2021/05/03 06:29:52;;;;;;;7.18;6.45;;;;;;;;;;5097190;28;20090;-73
2021/05/03 06:32:20;;;;;;;11.18;7.40;;;;;;;;;;5091805;28;20048;-73
2021/05/03 06:34:45;;;;;;;10.10;7.07;;;;;;;;;;5108817;28;20031;-73
2021/05/03 06:37:10;;;;;;;10.35;7.25;;;;;;;;;;5097571;28;20020;-73
2021/05/03 06:39:39;;;;;;;7.72;6.90;;;;;;;;;;5102942;28;20019;-73
2021/05/03 06:42:04;;;;;;;11.52;7.70;;;;;;;;;;5093579;28;20055;-73
2021/05/03 06:44:30;;;;;;;9.55;6.82;;;;;;;;;;5095430;28;20019;-73
2021/05/03 06:46:57;;;;;;;8.60;7.03;;;;;;;;;;5112362;28;20035;-72
2021/05/03 06:49:23;;;;;;;9.52;7.35;;;;;;;;;;5096380;28;20024;-73
2021/05/03 06:51:50;;;;;;;8.00;6.70;;;;;;;;;;5102588;28;20032;-73
2021/05/03 06:54:15;;;;;;;11.02;6.70;;;;;;;;;;5106580;28;20023;-73
2021/05/03 06:56:42;;;;;;;7.30;6.13;;;;;;;;;;5108167;28;20400;-73
2021/05/03 06:59:08;;;;;;;7.40;6.35;;;;;;;;;;5109148;28;20471;-73
2021/05/03 07:01:33;;;;;;;8.10;6.78;;;;;;;;;;5094062;28;20020;-74
2021/05/03 07:04:01;;;;;;;7.70;6.35;;;;;;;;;;5096886;28;20073;-75
2021/05/03 07:06:26;;;;;;;13.18;6.57;;;;;;;;;;5093240;28;20020;-74
2021/05/03 07:08:52;;;;;;;6.95;6.25;;;;;;;;;;5092522;28;20391;-75
2021/05/03 07:11:20;;;;;;;7.22;6.07;;;;;;;;;;5108137;28;20360;-76
2021/05/03 07:13:46;;;;;;;10.70;6.60;;;;;;;;;;5106122;28;20088;-74
2021/05/03 07:16:11;;;;;;;7.88;5.82;;;;;;;;;;5109171;28;20437;-73
2021/05/03 07:18:37;;;;;;;9.73;6.35;;;;;;;;;;5097605;28;20016;-72
2021/05/03 07:21:04;;;;;;;11.32;6.30;;;;;;;;;;5104081;28;20039;-73
2021/05/03 07:23:32;;;;;;;9.00;6.30;;;;;;;;;;5106946;28;20453;-73
2021/05/03 07:25:57;;;;;;;9.13;6.10;;;;;;;;;;5097221;28;20103;-73
2021/05/03 07:28:23;;;;;;;6.32;5.47;;;;;;;;;;5101033;28;20173;-72
2021/05/03 07:30:48;;;;;;;12.30;5.72;;;;;;;;;;5105902;28;20023;-72
2021/05/03 07:33:13;;;;;;;11.23;5.50;;;;;;;;;;5116934;28;20044;-73
2021/05/03 07:35:41;;;;;;;11.80;5.70;;;;;;;;;;5101018;28;20050;-73
2021/05/03 07:38:06;;;;;;;6.93;5.35;;;;;;;;;;5114178;28;20034;-73
2021/05/03 07:40:32;;;;;;;6.53;5.00;;;;;;;;;;5101601;28;20056;-73
2021/05/03 07:42:57;;;;;;;9.18;4.65;;;;;;;;;;5115509;28;20047;-74
2021/05/03 07:45:23;;;;;;;7.60;5.03;;;;;;;;;;5117277;28;20103;-73
2021/05/03 07:47:48;;;;;;;6.38;5.40;;;;;;;;;;5115318;28;20020;-73
2021/05/03 07:50:13;;;;;;;11.23;5.75;;;;;;;;;;5112366;28;20353;-73
2021/05/03 07:52:38;;;;;;;8.38;5.07;;;;;;;;;;5117056;28;20440;-73
2021/05/03 07:55:05;;;;;;;6.10;5.05;;;;;;;;;;5117092;28;20011;-73
2021/05/03 07:57:30;;;;;;;7.05;4.80;;;;;;;;;;5116285;28;20024;-73
2021/05/03 07:59:55;;;;;;;6.68;4.68;;;;;;;;;;5115942;28;20027;-75
2021/05/03 08:02:21;;;;;;;7.38;4.57;;;;;;;;;;5095629;28;20051;-73
2021/05/03 08:04:46;;;;;;;5.95;4.72;;;;;;;;;;5095436;28;20032;-73
2021/05/03 08:07:11;;;;;;;7.32;4.50;;;;;;;;;;5095579;28;20078;-73
2021/05/03 08:09:39;;;;;;;6.75;4.35;;;;;;;;;;5095410;28;20497;-73
2021/05/03 08:12:08;;;;;;;5.85;4.40;;;;;;;;;;5095026;28;20076;-72
2021/05/03 08:14:37;;;;;;;5.80;4.30;;;;;;;;;;5095520;28;20019;-73
2021/05/03 08:17:06;;;;;;;7.65;3.53;;;;;;;;;;5106954;28;20407;-73
2021/05/03 08:19:34;;;;;;;4.32;3.58;;;;;;;;;;5108486;28;20031;-73
2021/05/03 08:22:01;;;;;;;9.70;3.88;;;;;;;;;;5095950;28;20436;-73
2021/05/03 08:24:27;;;;;;;4.50;2.83;;;;;;;;;;5096383;28;20437;-72
2021/05/03 08:26:52;;;;;;;4.63;3.17;;;;;;;;;;5097604;28;20030;-73
2021/05/03 08:29:18;;;;;;;7.07;3.00;;;;;;;;;;5096417;28;20027;-73
2021/05/03 08:31:43;;;;;;;2.53;2.30;;;;;;;;;;5111425;28;20054;-72
2021/05/03 08:34:08;;;;;;;3.95;2.95;;;;;;;;;;5103619;28;20024;-72
2021/05/03 08:36:37;;;;;;;5.88;2.95;;;;;;;;;;5100044;28;20440;-71
2021/05/03 08:39:05;;;;;;;4.82;3.10;;;;;;;;;;5096552;28;20352;-74
2021/05/03 08:41:31;;;;;;;3.72;2.67;;;;;;;;;;5109687;28;20493;-73
2021/05/03 08:43:57;;;;;;;3.13;2.58;;;;;;;;;;5099176;28;20024;-73
2021/05/03 08:46:28;;;;;;;3.83;2.67;;;;;;;;;;5110874;28;20077;-74
2021/05/03 08:49:04;;;;;;;3.15;2.50;;;;;;;;;;5103741;28;20023;-73
2021/05/03 08:54:01;;;;;;;4.28;2.88;;;;;;;;;;5114386;28;20472;-73
2021/05/03 08:56:27;;;;;;;4.97;2.97;;;;;;;;;;5099877;28;20516;-74
2021/05/03 08:58:52;;;;;;;3.85;2.90;;;;;;;;;;5103753;28;20111;-73
2021/05/03 09:01:17;;;;;;;3.67;3.10;;;;;;;;;;5101324;28;20024;-74
2021/05/03 09:03:43;;;;;;;7.13;3.47;;;;;;;;;;5106579;28;20047;-73
2021/05/03 09:06:10;;;;;;;4.00;3.22;;;;;;;;;;5111540;28;20035;-74
2021/05/03 09:08:35;;;;;;;9.48;3.33;;;;;;;;;;5101599;28;20020;-74
2021/05/03 09:11:00;;;;;;;5.40;3.00;;;;;;;;;;5105320;28;20020;-74
2021/05/03 09:13:36;;;;;;;3.22;2.70;;;;;;;;;;5097121;28;20016;-75
2021/05/03 09:16:34;;;;;;;4.13;2.90;;;;;;;;;;5096276;28;20020;-74
2021/05/03 09:19:00;;;;;;;5.88;3.28;;;;;;;;;;5060108;28;20032;-75
2021/05/03 09:21:30;;;;;;;3.90;2.65;;;;;;;;;;5094803;28;20019;-75
2021/05/03 09:24:03;;;;;;;3.92;2.72;;;;;;;;;;5111724;28;20351;-75
2021/05/03 09:26:33;;;;;;;5.10;2.95;;;;;;;;;;5098840;28;20020;-76
2021/05/03 09:28:59;;;;;;;5.32;3.47;;;;;;;;;;5112954;28;20038;-74
2021/05/03 09:31:26;;;;;;;4.65;3.15;;;;;;;;;;5099878;28;20024;-74
2021/05/03 09:33:52;;;;;;;4.30;2.78;;;;;;;;;;5102057;28;20380;-74
2021/05/03 09:36:21;;;;;;;4.03;3.08;;;;;;;;;;5098671;28;20019;-73
2021/05/03 09:38:47;;;;;;;8.15;3.45;;;;;;;;;;5101819;28;20337;-73
2021/05/03 09:41:12;;;;;;;5.45;3.25;;;;;;;;;;5103015;28;20379;-72
2021/05/03 09:43:39;;;;;;;4.65;3.42;;;;;;;;;;5103057;28;20035;-73
2021/05/03 09:46:24;;;;;;;7.28;3.10;;;;;;;;;;5105898;28;20469;-73
2021/05/03 09:48:49;;;;;;;4.68;2.90;;;;;;;;;;5112651;28;20035;-73
2021/05/03 09:51:36;;;;;;;5.18;3.40;;;;;;;;;;5113292;28;20027;-73
2021/05/03 09:54:03;;;;;;;4.97;3.08;;;;;;;;;;5097387;28;20031;-72
2021/05/03 09:56:43;;;;;;;7.75;3.83;;;;;;;;;;5113185;28;20161;-73
2021/05/03 09:59:24;;;;;;;7.03;3.53;;;;;;;;;;5102507;28;20024;-73
2021/05/03 10:02:02;;;;;;;5.78;3.80;;;;;;;;;;5109272;28;20038;-72
2021/05/03 10:04:28;;;;;;;8.73;3.90;;;;;;;;;;5099341;28;20135;-73
2021/05/03 10:06:53;;;;;;;5.40;3.70;;;;;;;;;;5113311;28;20473;-73
2021/05/03 10:09:19;;;;;;;8.80;3.30;;;;;;;;;;5110097;27;20027;-73
2021/05/03 10:11:47;;;;;;;3.75;2.78;;;;;;;;;;5092941;28;20046;-73
2021/05/03 10:14:15;;;;;;;3.97;3.00;;;;;;;;;;5110270;28;20020;-74
2021/05/03 10:16:40;;;;;;;6.32;3.10;;;;;;;;;;5100299;28;20571;-73
2021/05/03 10:19:06;;;;;;;3.28;2.97;;;;;;;;;;5103012;28;20056;-73
2021/05/03 10:21:31;;;;;;;5.72;3.47;;;;;;;;;;5109059;28;20011;-73
2021/05/03 10:23:57;;;;;;;7.20;3.25;;;;;;;;;;5112621;28;20028;-74
2021/05/03 10:26:25;;;;;;;5.93;3.38;;;;;;;;;;5104883;28;20028;-75
2021/05/03 10:28:51;;;;;;;4.30;2.88;;;;;;;;;;5111228;28;20024;-75
2021/05/03 10:31:17;;;;;;;3.60;3.30;;;;;;;;;;5109600;28;20031;-74
2021/05/03 10:33:42;;;;;;;6.38;3.00;;;;;;;;;;5103342;28;20024;-74
2021/05/03 10:36:08;;;;;;;6.18;3.42;;;;;;;;;;5099757;28;20066;-74
2021/05/03 10:38:38;;;;;;;4.22;3.30;;;;;;;;;;5099823;28;20043;-75
2021/05/03 10:41:24;;;;;;;2.97;2.63;;;;;;;;;;5103316;28;20465;-73
2021/05/03 10:44:10;;;;;;;5.18;2.65;;;;;;;;;;5104515;28;20031;-74
2021/05/03 10:49:20;;;;;;;4.28;3.03;;;;;;;;;;5100577;28;20410;-74
2021/05/03 10:51:52;;;;;;;6.25;2.70;;;;;;;;;;5096481;28;20024;-73
2021/05/03 10:54:20;;;;;;;3.75;2.92;;;;;;;;;;5103337;28;20116;-74
2021/05/03 10:56:45;;;;;;;3.15;2.85;;;;;;;;;;5093506;28;20157;-73
2021/05/03 10:59:13;;;;;;;6.60;3.10;;;;;;;;;;5106067;28;20048;-75
2021/05/03 11:01:53;;;;;;;3.95;2.83;;;;;;;;;;5105222;28;20790;-76
2021/05/03 11:04:19;;;;;;;3.95;3.10;;;;;;;;;;5101673;28;20448;-75
2021/05/03 11:06:51;;;;;;;4.93;3.35;;;;;;;;;;5100183;28;20031;-74
2021/05/03 11:09:25;;;;;;;4.60;2.85;;;;;;;;;;5099209;28;20103;-72
2021/05/03 11:11:52;;;;;;;3.97;3.25;;;;;;;;;;5105401;28;20039;-73
2021/05/03 11:14:20;;;;;;;4.75;2.78;;;;;;;;;;5093801;28;20016;-75
2021/05/03 11:16:48;;;;;;;3.72;3.08;;;;;;;;;;5103655;28;20016;-74
2021/05/03 11:19:43;;;;;;;3.08;2.67;;;;;;;;;;5099649;28;20026;-75
2021/05/03 11:22:10;;;;;;;4.38;2.80;;;;;;;;;;5096793;28;20030;-74
2021/05/03 11:24:44;;;;;;;4.07;3.25;;;;;;;;;;5103599;28;20028;-75
2021/05/03 11:27:15;;;;;;;4.10;2.72;;;;;;;;;;5101583;28;20059;-76
2021/05/03 11:32:39;;;;;;;3.15;2.35;;;;;;;;;;5085053;28;20445;-73
2021/05/03 11:38:02;;;;;;;2.72;2.30;;;;;;;;;;5096701;28;20004;-73
2021/05/03 11:40:51;;;;;;;3.28;2.50;;;;;;;;;;5110813;28;20030;-71
2021/05/03 11:44:24;;;;;;;3.78;2.22;;;;;;;;;;5092156;28;20016;-73
2021/05/03 11:46:35;;;;;;;3.50;1.88;;;;;;;;;;5080986;28;20100;-73
2021/05/03 11:49:11;;;;;;;2.45;1.98;;;;;;;;;;5092551;28;20052;-76
2021/05/03 11:51:57;;;;;;;2.60;2.22;;;;;;;;;;5097177;28;20049;-74
2021/05/03 11:54:24;;;;;;;2.47;1.80;;;;;;;;;;5104177;28;20171;-75
2021/05/03 11:56:58;;;;;;;3.90;2.05;;;;;;;;;;5104101;28;20093;-75
2021/05/03 11:59:23;;;;;;;3.53;1.70;;;;;;;;;;5105944;28;20032;-76
2021/05/03 12:02:06;;;;;;;3.53;2.05;;;;;;;;;;5108474;28;20065;-76
2021/05/03 12:04:34;;;;;;;3.45;2.00;;;;;;;;;;5104351;28;20357;-77
2021/05/03 12:06:59;;;;;;;3.15;1.90;;;;;;;;;;5104732;28;20020;-76
2021/05/03 12:09:25;;;;;;;2.67;2.22;;;;;;;;;;5106028;28;20429;-76
2021/05/03 12:11:55;;;;;;;9.60;1.90;;;;;;;;;;5111674;28;20016;-75
2021/05/03 12:14:36;;;;;;;3.28;2.28;;;;;;;;;;5108529;28;20073;-75
2021/05/03 12:17:01;;;;;;;3.53;1.90;;;;;;;;;;5107221;28;20012;-75
2021/05/03 12:19:27;;;;;;;4.83;1.83;;;;;;;;;;5109210;28;20085;-75
2021/05/03 12:22:03;;;;;;;2.93;1.80;;;;;;;;;;5101561;28;20333;-76
2021/05/03 12:24:37;;;;;;;3.17;1.85;;;;;;;;;;5106677;28;20657;-76
2021/05/03 12:27:03;;;;;;;2.53;1.85;;;;;;;;;;5106874;28;20026;-75
2021/05/03 12:29:29;;;;;;;3.67;2.00;;;;;;;;;;5107788;28;20087;-76
2021/05/03 12:31:56;;;;;;;3.80;2.25;;;;;;;;;;5107735;28;20012;-76
2021/05/03 12:34:23;;;;;;;3.22;2.00;;;;;;;;;;5105401;28;20061;-75
2021/05/03 12:37:04;;;;;;;3.20;2.30;;;;;;;;;;5107239;28;20421;-76
2021/05/03 12:39:29;;;;;;;2.97;1.85;;;;;;;;;;5099981;28;20378;-76
2021/05/03 12:42:08;;;;;;;2.47;1.77;;;;;;;;;;5100112;28;20046;-75
2021/05/03 12:44:41;;;;;;;1.80;1.70;;;;;;;;;;5098503;28;20669;-75
2021/05/03 12:47:16;;;;;;;1.95;1.70;;;;;;;;;;5102146;28;20034;-74
2021/05/03 12:49:41;;;;;;;3.38;1.85;;;;;;;;;;5096020;28;20047;-76
2021/05/03 12:52:12;;;;;;;2.00;1.80;;;;;;;;;;5105936;28;20087;-74
2021/05/03 12:54:49;;;;;;;1.98;1.65;;;;;;;;;;5100642;28;20284;-75
2021/05/03 13:00:04;;;;;;;3.13;2.40;;;;;;;;;;5105231;28;20026;-74
2021/05/03 13:02:47;;;;;;;3.03;2.10;;;;;;;;;;5102044;28;20595;-75
2021/05/03 13:05:16;;;;;;;2.58;2.00;;;;;;;;;;5103441;28;20019;-75
2021/05/03 13:24:22;;;;;;;2.80;2.13;;;;;;;;;;5111860;28;20399;-76
2021/05/03 13:28:59;;;;;;;4.15;2.03;;;;;;;;;;5102245;28;20076;-76
2021/05/03 13:31:24;;;;;;;3.53;1.90;;;;;;;;;;5095447;28;20024;-76
2021/05/03 13:33:49;;;;;;;4.45;2.03;;;;;;;;;;5095373;28;20357;-76
2021/05/03 13:36:14;;;;;;;3.10;1.80;;;;;;;;;;5100194;28;20024;-77
2021/05/03 13:38:40;;;;;;;2.67;1.40;;;;;;;;;;5106017;28;20599;-76
2021/05/03 13:41:05;;;;;;;2.97;2.00;;;;;;;;;;5107394;28;20289;-75
2021/05/03 13:43:30;;;;;;;2.77;2.17;;;;;;;;;;5114352;28;20713;-75
2021/05/03 13:45:55;;;;;;;3.70;1.92;;;;;;;;;;5114759;28;20658;-75
2021/05/03 13:48:23;;;;;;;2.67;1.90;;;;;;;;;;5109531;28;20016;-75
2021/05/03 13:50:48;;;;;;;3.58;2.40;;;;;;;;;;5097057;28;20273;-75
2021/05/03 13:53:16;;;;;;;2.35;2.10;;;;;;;;;;5099859;28;20046;-74
2021/05/03 13:55:43;;;;;;;1.92;1.70;;;;;;;;;;5097726;28;20518;-75
2021/05/03 13:58:08;;;;;;;2.03;1.92;;;;;;;;;;5103233;28;20088;-75
2021/05/03 14:00:36;;;;;;;2.47;1.97;;;;;;;;;;5096485;28;20028;-75
2021/05/03 14:03:01;;;;;;;5.82;2.08;;;;;;;;;;5093868;28;20262;-75
2021/05/03 14:05:28;;;;;;;3.57;1.90;;;;;;;;;;5097863;28;20032;-75
2021/05/03 14:07:53;;;;;;;5.72;2.03;;;;;;;;;;5093451;28;20734;-75
2021/05/03 14:10:21;;;;;;;2.88;1.67;;;;;;;;;;5097203;28;20059;-76
2021/05/03 14:12:46;;;;;;;3.05;2.10;;;;;;;;;;5104783;28;20088;-76
2021/05/03 14:15:17;;;;;;;6.23;2.27;;;;;;;;;;5101667;28;20020;-75
2021/05/03 14:17:42;;;;;;;3.08;2.05;;;;;;;;;;5102434;28;20246;-75
2021/05/03 14:20:08;;;;;;;5.47;2.00;;;;;;;;;;5097711;28;20043;-75
2021/05/03 14:22:33;;;;;;;3.05;1.67;;;;;;;;;;5104747;28;20268;-74
2021/05/03 14:24:58;;;;;;;4.95;2.40;;;;;;;;;;5103557;28;20147;-74
2021/05/03 14:27:24;;;;;;;3.00;2.08;;;;;;;;;;5108412;28;20099;-75
2021/05/03 14:29:53;;;;;;;3.55;1.95;;;;;;;;;;5105783;28;20424;-75
2021/05/03 14:32:37;;;;;;;3.53;1.95;;;;;;;;;;5101092;28;20148;-75
2021/05/03 14:35:05;;;;;;;2.67;2.30;;;;;;;;;;5101003;28;20008;-76
2021/05/03 14:37:30;;;;;;;2.70;2.03;;;;;;;;;;5103721;28;20141;-75
2021/05/03 14:39:56;;;;;;;5.18;2.13;;;;;;;;;;5105333;28;20087;-75
2021/05/03 14:42:21;;;;;;;6.25;2.20;;;;;;;;;;5113544;28;20430;-75
2021/05/03 14:44:46;;;;;;;2.35;1.75;;;;;;;;;;5112804;28;20120;-75
2021/05/03 14:47:18;;;;;;;4.22;2.00;;;;;;;;;;5106614;28;20058;-75
2021/05/03 14:49:53;;;;;;;5.05;2.10;;;;;;;;;;5094524;28;20023;-75
2021/05/03 14:55:10;;;;;;;4.15;2.17;;;;;;;;;;5081365;28;20028;-75
2021/05/03 14:57:35;;;;;;;3.05;2.08;;;;;;;;;;5113235;28;20487;-75
2021/05/03 15:00:00;;;;;;;3.53;1.90;;;;;;;;;;5128194;28;20081;-75
2021/05/03 15:02:26;;;;;;;2.90;1.70;;;;;;;;;;5110364;28;20061;-75
2021/05/03 15:04:51;;;;;;;2.73;1.80;;;;;;;;;;5106518;28;20311;-76
2021/05/03 15:07:19;;;;;;;2.60;1.87;;;;;;;;;;5113117;28;20306;-75
2021/05/03 15:09:50;;;;;;;1.73;1.60;;;;;;;;;;5110580;28;20269;-75
2021/05/03 15:12:22;;;;;;;2.90;1.80;;;;;;;;;;5093040;28;20028;-76
2021/05/03 15:15:00;;;;;;;3.72;1.80;;;;;;;;;;5093461;28;20020;-76
2021/05/03 15:17:45;;;;;;;3.25;2.00;;;;;;;;;;5112314;28;20428;-75
2021/05/03 15:22:54;;;;;;;2.67;1.70;;;;;;;;;;5092400;28;20058;-75
2021/05/03 15:25:20;;;;;;;3.70;1.70;;;;;;;;;;5092969;28;20437;-76
2021/05/03 15:28:26;;;;;;;3.13;1.70;;;;;;;;;;5093014;28;20031;-76
2021/05/03 15:35:52;;;;;;;2.28;1.95;;;;;;;;;;5097352;28;20015;-76
2021/05/03 15:38:17;;;;;;;4.28;1.70;;;;;;;;;;5110970;28;20019;-77
2021/05/03 15:40:42;;;;;;;2.33;1.80;;;;;;;;;;5112805;28;20059;-80